Flight Track Log - Related Links

Times and Time Zones

All times are in EDT time to prevent confusion due to time zone crossing. See the DAL268 flight status page for this flight to view local times or setup timezone preferences in your user account.

Time Position Orientation Groundspeed Altitude Reporting Facility
EDT Latitude Longitude Course Direction KTS MPH feet Rate Location/Type
Thu 23:48:17 40.6430 -73.8210 299° West 181 208 600  Level FlightAware ADS-B
Thu 23:48:32 40.6480 -73.8370 292° West 185 213 1,000 1,500 Climbing FlightAware ADS-B
Thu 23:48:57 40.6390 -73.8650 247° West 219 252 1,600 1,200 Climbing FlightAware ADS-B
Thu 23:49:12 40.6270 -73.8770 217° Southwest 237 273 1,800 1,050 Climbing FlightAware ADS-B
Thu 23:49:37 40.6020 -73.8840 192° South 264 304 2,300 1,091 Climbing FlightAware ADS-B
Thu 23:50:07 40.5660 -73.8600 153° Southeast 291 335 2,800 1,467 Climbing FlightAware ADS-B
Thu 23:50:22 40.5570 -73.8340 114° Southeast 294 338 3,400 2,000 Climbing FlightAware ADS-B
Thu 23:50:52 40.5590 -73.7800 87° East 300 345 4,300 2,073 Climbing FlightAware ADS-B
Thu 23:51:17 40.5630 -73.7360 83° East 309 356 5,300 2,323 Climbing FlightAware ADS-B
Thu 23:51:23 40.5627 -73.7204 91° East 314 361 5,500 2,571 Climbing FlightAware ADS-B
Thu 23:51:38 40.5618 -73.6912 92° East 316 364 6,200 2,889 Climbing FlightAware ADS-B
Thu 23:51:50 40.5615 -73.6683 91° East 315 362 6,800 2,690 Climbing FlightAware ADS-B
Thu 23:52:07 40.5617 -73.6360 90° East 319 367 7,500 2,294 Climbing FlightAware ADS-B
Thu 23:52:24 40.5619 -73.6025 90° East 327 376 8,100 2,294 Climbing FlightAware ADS-B
Thu 23:52:41 40.5617 -73.5686 90° East 331 381 8,800 2,438 Climbing FlightAware ADS-B
Thu 23:52:56 40.5606 -73.5366 93° East 335 386 9,400 2,143 Climbing FlightAware ADS-B
Thu 23:53:09 40.5607 -73.5100 90° East 339 390 9,800 2,000 Climbing FlightAware ADS-B
Thu 23:53:20 40.5623 -73.4871 85° East 345 397 10,200 1,463 Climbing FlightAware ADS-B
Thu 23:53:50 40.5705 -73.4247 80° East 368 423 10,800 1,279 Climbing FlightAware ADS-B
Thu 23:54:21 40.5784 -73.3522 82° East 396 456 11,500 1,279 Climbing FlightAware ADS-B
Thu 23:54:51 40.5868 -73.2785 81° East 421 484 12,100 1,452 Climbing FlightAware ADS-B
Thu 23:55:23 40.5959 -73.1972 82° East 433 498 13,000 2,032 Climbing FlightAware ADS-B
Thu 23:55:53 40.6045 -73.1179 82° East 441 507 14,200 2,262 Climbing FlightAware ADS-B
Thu 23:56:24 40.6138 -73.0351 82° East 451 519 15,300 1,967 Climbing FlightAware ADS-B
Thu 23:56:54 40.6232 -72.9506 82° East 458 527 16,200 2,557 Climbing FlightAware ADS-B
Thu 23:57:25 40.6321 -72.8658 82° East 447 514 17,900 2,806 Climbing FlightAware ADS-B
Thu 23:57:56 40.6407 -72.7831 82° East 446 513 19,100 1,548 Climbing FlightAware ADS-B
Thu 23:58:27 40.6495 -72.6984 82° East 470 541 19,500 750 Climbing FlightAware ADS-B
Thu 23:59:00 40.6594 -72.6021 82° East 492 566 19,900 1,200 Climbing FlightAware ADS-B
Fri 00:00:12 40.6800 -72.3910 83° East 509 586 21,600 1,446 Climbing FlightAware ADS-B
Fri 00:00:52 40.6930 -72.2680 82° East 516 594 22,600 975 Climbing FlightAware ADS-B
Fri 00:01:32 40.7050 -72.1530 82° East 518 596 22,900 1,404 Climbing FlightAware ADS-B
Fri 00:01:39 40.7085 -72.1110 84° East 526 605 23,700 2,368 Climbing FlightAware ADS-B
Fri 00:02:10 40.7183 -72.0129 82° East 533 613 24,400 1,385 Climbing FlightAware ADS-B
Fri 00:02:44 40.7288 -71.9035 83° East 540 621 25,200 1,125 Climbing FlightAware ADS-B
Fri 00:03:14 40.7382 -71.8038 83° East 550 633 25,600 1,091 Climbing FlightAware ADS-B
Fri 00:03:50 40.7494 -71.6841 83° East 553 636 26,400 1,071 Climbing FlightAware ADS-B
Fri 00:04:38 40.7647 -71.5179 83° East 564 649 27,100 955 Climbing FlightAware ADS-B
Fri 00:05:18 40.7772 -71.3809 83° East 572 658 27,800 809 Climbing FlightAware ADS-B
Fri 00:06:07 40.7989 -71.2569 83° East 582 670 28,300 944 Climbing New York Center
Fri 00:07:06 40.8161 -71.0486 84° East 577 664 29,500 1,322 Climbing New York Center
Fri 00:08:05 40.8417 -70.8211 81° East 570 656 30,900 1,300 Climbing New York Center
Fri 00:09:06 40.8583 -70.6128 84° East 570 656 32,100 1,050 Climbing New York Center
Fri 00:10:05 40.8767 -70.4042 83° East 570 656 33,000 446 Climbing New York Center
Fri 00:11:07 40.8947 -70.1956 83° East 576 663 33,000  Level New York Center
Fri 00:12:07 40.9122 -69.9814 84° East 576 663 33,000  Level New York Center
Fri 00:13:04 40.9294 -69.7725 84° East 576 663 33,000  Level New York Center
Fri 00:14:06 40.9444 -69.5608 85° East 576 663 33,000  Level New York Center
Fri 00:15:07 40.9589 -69.3572 85° East 576 663 33,000  Level New York Center
Fri 00:16:04 40.9750 -69.1481 84° East 571 657 33,000  Level New York Center
Fri 00:17:06 40.9928 -68.9361 84° East 571 657 33,000  Level New York Center
Fri 00:18:06 41.0064 -68.7322 85° East 571 657 33,000  Level New York Center
Fri 00:19:07 41.0214 -68.5200 85° East 571 657 33,000  Level New York Center
Fri 00:20:05 41.0381 -68.3106 84° East 576 663 33,000  Level New York Center
Fri 00:21:06 41.0506 -68.1011 85° East 571 657 33,000  Level New York Center
Fri 00:22:06 41.0625 -67.8969 85° East 571 657 33,000  Level New York Center
Fri 00:23:04 41.0761 -67.6847 85° East 571 657 33,000  Level New York Center
Fri 00:24:04 41.0872 -67.4778 86° East 571 657 33,000  Level New York Center
Fri 00:25:04 41.1000 -67.2678 85° East 571 657 33,000 -439 Level New York Center
Fri 00:26:07 41.1125 -67.0581 85° East 571 657 32,100 -472 Descending New York Center
Fri 00:27:11 41.1167 -67.0000 78° East 581 669 32,000 -15 Descending New York Oceanic (ODAPS)
Fri 00:33:00 41.3393 -65.5318 79° East 581 669 32,000  Level FlightAware Transoceanic
Fri 00:34:00 41.3696 -65.3213 79° East 581 669 32,000  Level FlightAware Transoceanic
Fri 00:35:00 41.3995 -65.1105 79° East 581 669 32,000  Level FlightAware Transoceanic
Fri 00:36:00 41.4290 -64.8996 80° East 581 669 32,000  Level FlightAware Transoceanic
Fri 00:37:00 41.4582 -64.6885 80° East 581 669 32,000  Level FlightAware Transoceanic
Fri 00:38:00 41.4869 -64.4771 80° East 581 669 32,000  Level FlightAware Transoceanic
Fri 00:39:00 41.5153 -64.2656 80° East 581 669 32,000  Level FlightAware Transoceanic
Fri 00:40:00 41.5432 -64.0539 80° East 581 669 32,000  Level FlightAware Transoceanic
Fri 00:41:00 41.5708 -63.8421 80° East 581 669 32,000  Level FlightAware Transoceanic
Fri 00:42:00 41.5980 -63.6300 80° East 581 669 32,000  Level FlightAware Transoceanic
Fri 00:43:00 41.6248 -63.4178 80° East 581 669 32,000  Level FlightAware Transoceanic
Fri 00:44:00 41.6512 -63.2054 81° East 581 669 32,000  Level FlightAware Transoceanic
Fri 00:45:00 41.6772 -62.9929 81° East 581 669 32,000  Level FlightAware Transoceanic
Fri 00:46:00 41.7028 -62.7801 81° East 581 669 32,000  Level FlightAware Transoceanic
Fri 00:47:00 41.7281 -62.5672 81° East 581 669 32,000  Level FlightAware Transoceanic
Fri 00:48:00 41.7529 -62.3541 81° East 581 669 32,000  Level FlightAware Transoceanic
Fri 00:49:00 41.7774 -62.1409 81° East 581 669 32,000  Level FlightAware Transoceanic
Fri 00:50:00 41.8014 -61.9275 81° East 581 669 32,000  Level FlightAware Transoceanic
Fri 00:51:00 41.8251 -61.7139 82° East 581 669 32,000  Level FlightAware Transoceanic
Fri 00:52:00 41.8483 -61.5002 82° East 581 669 32,000  Level FlightAware Transoceanic
Fri 00:53:00 41.8712 -61.2863 82° East 581 669 32,000  Level FlightAware Transoceanic
Fri 00:54:00 41.8937 -61.0723 82° East 581 669 32,000  Level FlightAware Transoceanic
Fri 00:55:00 41.9157 -60.8581 82° East 581 669 32,000  Level FlightAware Transoceanic
Fri 00:56:00 41.9374 -60.6438 82° East 581 669 32,000  Level FlightAware Transoceanic
Fri 00:57:00 41.9587 -60.4294 82° East 581 669 32,000  Level FlightAware Transoceanic
Fri 00:58:00 41.9795 -60.2147 83° East 581 669 32,000  Level FlightAware Transoceanic
Fri 00:59:00 42.0000 -60.0000 71° East 581 669 32,000  Level FlightAware Transoceanic
Fri 01:00:00 42.0504 -59.7986 71° East 581 669 32,000  Level FlightAware Transoceanic
Fri 01:01:00 42.1004 -59.5969 72° East 581 669 32,000  Level FlightAware Transoceanic
Fri 01:01:56 42.0000 -60.0000 71° East 582 670 32,000  Level New York Oceanic (ODAPS)
Fri 01:02:00 42.1500 -59.3949 72° East 581 669 32,000  Level FlightAware Transoceanic
Fri 01:03:00 42.1993 -59.1926 72° East 581 669 32,000  Level FlightAware Transoceanic
Fri 01:04:00 42.2482 -58.9899 72° East 581 669 32,000  Level FlightAware Transoceanic
Fri 01:05:00 42.2968 -58.7869 72° East 581 669 32,000  Level FlightAware Transoceanic
Fri 01:06:00 42.3451 -58.5837 72° East 581 669 32,000  Level FlightAware Transoceanic
Fri 01:07:00 42.3929 -58.3801 72° East 581 669 32,000  Level FlightAware Transoceanic
Fri 01:08:00 42.4010 -58.3454 72° East 582 670 32,000  Level FlightAware Transoceanic
Fri 01:09:00 42.4495 -58.1371 73° East 582 670 32,000  Level FlightAware Transoceanic
Fri 01:10:00 42.4976 -57.9285 73° East 582 670 32,000  Level FlightAware Transoceanic
Fri 01:11:00 42.5452 -57.7196 73° East 582 670 32,000  Level FlightAware Transoceanic
Fri 01:12:00 42.5926 -57.5103 73° East 582 670 32,000  Level FlightAware Transoceanic
Fri 01:13:00 42.6395 -57.3008 73° East 582 670 32,000  Level FlightAware Transoceanic
Fri 01:14:00 42.6860 -57.0909 73° East 582 670 32,000  Level FlightAware Transoceanic
Fri 01:15:00 42.7322 -56.8807 73° East 582 670 32,000  Level FlightAware Transoceanic
Fri 01:16:00 42.7780 -56.6702 74° East 582 670 32,000  Level FlightAware Transoceanic
Fri 01:17:00 42.8234 -56.4594 74° East 582 670 32,000  Level FlightAware Transoceanic
Fri 01:18:00 42.8684 -56.2482 74° East 582 670 32,000  Level FlightAware Transoceanic
Fri 01:19:00 42.9130 -56.0368 74° East 582 670 32,000  Level FlightAware Transoceanic
Fri 01:20:00 42.9572 -55.8251 74° East 582 670 32,000  Level FlightAware Transoceanic
Fri 01:21:00 43.0011 -55.6130 74° East 582 670 32,000  Level FlightAware Transoceanic
Fri 01:22:00 43.0445 -55.4007 74° East 582 670 32,000  Level FlightAware Transoceanic
Fri 01:23:00 43.0876 -55.1880 75° East 582 670 32,000  Level FlightAware Transoceanic
Fri 01:24:00 43.1302 -54.9751 75° East 582 670 32,000  Level FlightAware Transoceanic
Fri 01:25:00 43.1725 -54.7618 75° East 582 670 32,000  Level FlightAware Transoceanic
Fri 01:26:00 43.2144 -54.5483 75° East 582 670 32,000  Level FlightAware Transoceanic
Fri 01:27:00 43.2558 -54.3345 75° East 582 670 32,000  Level FlightAware Transoceanic
Fri 01:28:00 43.2969 -54.1204 75° East 582 670 32,000  Level FlightAware Transoceanic
Fri 01:29:00 43.3376 -53.9060 75° East 582 670 32,000  Level FlightAware Transoceanic
Fri 01:30:00 43.3778 -53.6913 76° East 582 670 32,000  Level FlightAware Transoceanic
Fri 01:31:00 43.4177 -53.4763 76° East 582 670 32,000  Level FlightAware Transoceanic
Fri 01:32:00 43.4571 -53.2611 76° East 582 670 32,000  Level FlightAware Transoceanic
Fri 01:33:00 43.4962 -53.0456 76° East 582 670 32,000  Level FlightAware Transoceanic
Fri 01:34:00 43.5349 -52.8297 76° East 582 670 32,000  Level FlightAware Transoceanic
Fri 01:35:00 43.5731 -52.6137 76° East 582 670 32,000  Level FlightAware Transoceanic
Fri 01:36:00 43.6110 -52.3973 76° East 582 670 32,000  Level FlightAware Transoceanic
Fri 01:37:00 43.6484 -52.1807 77° East 582 670 32,000  Level FlightAware Transoceanic
Fri 01:38:00 43.6854 -51.9638 77° East 582 670 32,000  Level FlightAware Transoceanic
Fri 01:39:00 43.7220 -51.7466 77° East 582 670 32,000  Level FlightAware Transoceanic
Fri 01:40:00 43.7582 -51.5292 77° East 582 670 32,000  Level FlightAware Transoceanic
Fri 01:41:00 43.7940 -51.3115 77° East 582 670 32,000  Level FlightAware Transoceanic
Fri 01:42:00 43.8294 -51.0936 77° East 582 670 32,000  Level FlightAware Transoceanic
Fri 01:43:00 43.8643 -50.8753 78° East 582 670 32,000  Level FlightAware Transoceanic
Fri 01:44:00 43.8989 -50.6569 78° East 582 670 32,000  Level FlightAware Transoceanic
Fri 01:45:00 43.9330 -50.4382 78° East 582 670 32,000  Level FlightAware Transoceanic
Fri 01:46:00 43.9667 -50.2192 78° East 582 670 32,000  Level FlightAware Transoceanic
Fri 01:47:00 44.0000 -50.0000 63° Northeast 582 670 32,000  Level FlightAware Transoceanic
Fri 01:48:00 44.0669 -49.8143 63° Northeast 582 670 32,000  Level FlightAware Transoceanic
Fri 01:49:00 44.1336 -49.6282 64° Northeast 582 670 32,000  Level FlightAware Transoceanic
Fri 01:50:00 44.1999 -49.4416 64° Northeast 582 670 32,000 714 Level FlightAware Transoceanic
Fri 01:50:24 44.0000 -50.0000 63° Northeast 550 633 33,000  Climbing New York Oceanic (ODAPS)
Fri 01:51:00 44.2659 -49.2546 64° Northeast 582 670 32,000 -625 Descending FlightAware Transoceanic
Fri 01:52:00 44.3316 -49.0672 64° Northeast 582 670 32,000  Level FlightAware Transoceanic
Fri 01:53:00 44.3970 -48.8794 64° Northeast 582 670 32,000  Level FlightAware Transoceanic
Fri 01:54:00 44.4621 -48.6912 64° Northeast 582 670 32,000  Level FlightAware Transoceanic
Fri 01:55:00 44.5269 -48.5025 64° Northeast 582 670 32,000 500 Level FlightAware Transoceanic
Fri 01:56:00 44.5373 -48.4723 64° Northeast 550 633 33,000 500 Climbing FlightAware Transoceanic
Fri 01:57:00 44.6030 -48.2794 65° Northeast 550 633 33,000  Level FlightAware Transoceanic
Fri 01:58:00 44.6684 -48.0860 65° Northeast 550 633 33,000  Level FlightAware Transoceanic
Fri 01:59:00 44.7334 -47.8923 65° Northeast 550 633 33,000  Level FlightAware Transoceanic
Fri 02:00:00 44.7981 -47.6980 65° Northeast 550 633 33,000  Level FlightAware Transoceanic
Fri 02:01:00 44.8626 -47.5034 65° Northeast 550 633 33,000  Level FlightAware Transoceanic
Fri 02:02:00 44.9266 -47.3083 65° Northeast 550 633 33,000  Level FlightAware Transoceanic
Fri 02:03:00 44.9904 -47.1127 65° Northeast 550 633 33,000  Level FlightAware Transoceanic
Fri 02:04:00 45.0538 -46.9168 65° Northeast 550 633 33,000  Level FlightAware Transoceanic
Fri 02:05:00 45.1168 -46.7203 66° East 550 633 33,000  Level FlightAware Transoceanic
Fri 02:06:00 45.1796 -46.5235 66° East 550 633 33,000  Level FlightAware Transoceanic
Fri 02:07:00 45.2420 -46.3262 66° East 550 633 33,000  Level FlightAware Transoceanic
Fri 02:08:00 45.3040 -46.1286 66° East 550 633 33,000  Level FlightAware Transoceanic
Fri 02:09:00 45.3657 -45.9304 66° East 550 633 33,000  Level FlightAware Transoceanic
Fri 02:10:00 45.4271 -45.7318 66° East 550 633 33,000  Level FlightAware Transoceanic
Fri 02:11:00 45.4881 -45.5329 66° East 550 633 33,000  Level FlightAware Transoceanic
Fri 02:12:00 45.5488 -45.3334 67° East 550 633 33,000  Level FlightAware Transoceanic
Fri 02:13:00 45.6091 -45.1336 67° East 550 633 33,000  Level FlightAware Transoceanic
Fri 02:14:00 45.6691 -44.9333 67° East 550 633 33,000  Level FlightAware Transoceanic
Fri 02:15:00 45.7287 -44.7326 67° East 550 633 33,000  Level FlightAware Transoceanic
Fri 02:16:00 45.7880 -44.5314 67° East 550 633 33,000  Level FlightAware Transoceanic
Fri 02:17:00 45.8469 -44.3299 67° East 550 633 33,000  Level FlightAware Transoceanic
Fri 02:18:00 45.9055 -44.1279 67° East 550 633 33,000  Level FlightAware Transoceanic
Fri 02:19:00 45.9637 -43.9254 68° East 550 633 33,000  Level FlightAware Transoceanic
Fri 02:20:00 46.0216 -43.7226 68° East 550 633 33,000  Level FlightAware Transoceanic
Fri 02:21:00 46.0790 -43.5193 68° East 550 633 33,000  Level FlightAware Transoceanic
Fri 02:22:00 46.1362 -43.3157 68° East 550 633 33,000  Level FlightAware Transoceanic
Fri 02:23:00 46.1930 -43.1115 68° East 550 633 33,000  Level FlightAware Transoceanic
Fri 02:24:00 46.2494 -42.9070 68° East 550 633 33,000  Level FlightAware Transoceanic
Fri 02:25:00 46.3054 -42.7020 68° East 550 633 33,000  Level FlightAware Transoceanic
Fri 02:26:00 46.3611 -42.4967 69° East 550 633 33,000  Level FlightAware Transoceanic
Fri 02:27:00 46.4164 -42.2909 69° East 550 633 33,000  Level FlightAware Transoceanic
Fri 02:28:00 46.4713 -42.0847 69° East 550 633 33,000  Level FlightAware Transoceanic
Fri 02:29:00 46.5259 -41.8781 69° East 550 633 33,000  Level FlightAware Transoceanic
Fri 02:30:00 46.5801 -41.6710 69° East 550 633 33,000  Level FlightAware Transoceanic
Fri 02:31:00 46.6339 -41.4636 69° East 550 633 33,000  Level FlightAware Transoceanic
Fri 02:32:00 46.6873 -41.2557 70° East 550 633 33,000  Level FlightAware Transoceanic
Fri 02:33:00 46.7404 -41.0475 70° East 550 633 33,000  Level FlightAware Transoceanic
Fri 02:34:00 46.7931 -40.8388 70° East 550 633 33,000  Level FlightAware Transoceanic
Fri 02:35:00 46.8454 -40.6297 70° East 550 633 33,000  Level FlightAware Transoceanic
Fri 02:36:00 46.8973 -40.4202 70° East 550 633 33,000  Level FlightAware Transoceanic
Fri 02:37:00 46.9488 -40.2103 70° East 550 633 33,000  Level FlightAware Transoceanic
Fri 02:38:00 47.0000 -40.0000 86° East 550 633 33,000  Level FlightAware Transoceanic
Fri 02:39:00 47.0093 -39.7832 86° East 550 633 33,000  Level FlightAware Transoceanic
Fri 02:40:00 47.0181 -39.5662 87° East 550 633 33,000  Level FlightAware Transoceanic
Fri 02:41:00 47.0265 -39.3493 87° East 550 633 33,000  Level FlightAware Transoceanic
Fri 02:42:00 47.0346 -39.1322 87° East 550 633 33,000  Level FlightAware Transoceanic
Fri 02:42:09 47.0000 -40.0000 86° East 533 613 33,000  Level ETMS Enhanced Traffic Management System
Fri 02:43:00 47.0422 -38.9151 87° East 550 633 33,000  Level FlightAware Transoceanic
Fri 02:44:00 47.0494 -38.6979 87° East 550 633 33,000  Level FlightAware Transoceanic
Fri 02:45:00 47.0562 -38.4807 87° East 550 633 33,000  Level FlightAware Transoceanic
Fri 02:46:00 47.0626 -38.2634 88° East 550 633 33,000  Level FlightAware Transoceanic
Fri 02:47:00 47.0685 -38.0461 88° East 550 633 33,000  Level FlightAware Transoceanic
Fri 02:48:00 47.0626 -38.2634 88° East 533 613 33,000  Level FlightAware Transoceanic
Fri 02:49:00 47.0685 -38.0461 88° East 533 613 33,000  Level FlightAware Transoceanic
Fri 02:50:00 47.0741 -37.8287 88° East 533 613 33,000  Level FlightAware Transoceanic
Fri 02:51:00 47.0793 -37.6113 88° East 533 613 33,000  Level FlightAware Transoceanic
Fri 02:52:00 47.0840 -37.3938 88° East 533 613 33,000  Level FlightAware Transoceanic
Fri 02:53:00 47.0883 -37.1763 88° East 533 613 33,000  Level FlightAware Transoceanic
Fri 02:54:00 47.0922 -36.9588 89° East 533 613 33,000  Level FlightAware Transoceanic
Fri 02:55:00 47.0957 -36.7412 89° East 533 613 33,000  Level FlightAware Transoceanic
Fri 02:56:00 47.0988 -36.5236 89° East 533 613 33,000  Level FlightAware Transoceanic
Fri 02:57:00 47.1015 -36.3060 89° East 533 613 33,000  Level FlightAware Transoceanic
Fri 02:58:00 47.1038 -36.0884 89° East 533 613 33,000  Level FlightAware Transoceanic
Fri 02:59:00 47.1056 -35.8707 89° East 533 613 33,000  Level FlightAware Transoceanic
Fri 03:00:00 47.1071 -35.6530 90° East 533 613 33,000  Level FlightAware Transoceanic
Fri 03:01:00 47.1081 -35.4354 90° East 533 613 33,000  Level FlightAware Transoceanic
Fri 03:02:00 47.1087 -35.2177 90° East 533 613 33,000  Level FlightAware Transoceanic
Fri 03:03:00 47.1089 -35.0000 90° East 533 613 33,000  Level FlightAware Transoceanic
Fri 03:04:00 47.1087 -34.7823 90° East 533 613 33,000  Level FlightAware Transoceanic
Fri 03:05:00 47.1081 -34.5646 90° East 533 613 33,000  Level FlightAware Transoceanic
Fri 03:06:00 47.1071 -34.3470 90° East 533 613 33,000  Level FlightAware Transoceanic
Fri 03:07:00 47.1056 -34.1293 91° East 533 613 33,000  Level FlightAware Transoceanic
Fri 03:08:00 47.1038 -33.9116 91° East 533 613 33,000  Level FlightAware Transoceanic
Fri 03:09:00 47.1015 -33.6940 91° East 533 613 33,000  Level FlightAware Transoceanic
Fri 03:10:00 47.0988 -33.4764 91° East 533 613 33,000  Level FlightAware Transoceanic
Fri 03:11:00 47.0957 -33.2588 91° East 533 613 33,000  Level FlightAware Transoceanic
Fri 03:12:00 47.0922 -33.0412 91° East 533 613 33,000  Level FlightAware Transoceanic
Fri 03:13:00 47.0883 -32.8237 92° East 533 613 33,000  Level FlightAware Transoceanic
Fri 03:14:00 47.0840 -32.6062 92° East 533 613 33,000  Level FlightAware Transoceanic
Fri 03:15:00 47.0793 -32.3887 92° East 533 613 33,000  Level FlightAware Transoceanic
Fri 03:16:00 47.0741 -32.1713 92° East 533 613 33,000  Level FlightAware Transoceanic
Fri 03:17:00 47.0685 -31.9539 92° East 533 613 33,000  Level FlightAware Transoceanic
Fri 03:18:00 47.0626 -31.7366 92° East 533 613 33,000  Level FlightAware Transoceanic
Fri 03:19:00 47.0562 -31.5193 93° East 533 613 33,000  Level FlightAware Transoceanic
Fri 03:20:00 47.0494 -31.3021 93° East 533 613 33,000  Level FlightAware Transoceanic
Fri 03:21:00 47.0422 -31.0849 93° East 533 613 33,000  Level FlightAware Transoceanic
Fri 03:22:00 47.0346 -30.8678 93° East 533 613 33,000  Level FlightAware Transoceanic
Fri 03:23:00 47.0265 -30.6507 93° East 533 613 33,000 222 Level FlightAware Transoceanic
Fri 03:24:00 47.0183 -30.4378 93° East  Level FlightAware Approximate
Fri 03:25:00 47.0096 -30.2249 93° East  Level FlightAware Approximate
Fri 03:26:00 47.0005 -30.0121 93° East  Level FlightAware Approximate
Fri 03:27:00 46.9910 -29.7994 94° East  Level FlightAware Approximate
Fri 03:28:00 46.9887 -29.8037 95° East  Level FlightAware Approximate
Fri 03:29:00 46.9762 -29.5914 95° East  Level FlightAware Approximate
Fri 03:30:00 46.9632 -29.3791 95° East  Level FlightAware Approximate
Fri 03:31:00 46.9498 -29.1670 95° East  Level FlightAware Approximate
Fri 03:31:00 47.0000 -30.0000 95° East 532 612 35,000  Level ETMS Enhanced Traffic Management System
Fri 03:32:00 46.9361 -28.9550 95° East  Level FlightAware Approximate
Fri 03:33:00 46.9220 -28.7434 96° East  Level FlightAware Approximate
Fri 03:34:00 46.9075 -28.5320 96° East  Level FlightAware Approximate
Fri 03:35:00 46.8926 -28.3207 96° East  Level FlightAware Approximate
Fri 03:36:00 46.8773 -28.1095 96° East  Level FlightAware Approximate
Fri 03:37:00 46.8616 -27.8984 96° East  Level FlightAware Approximate
Fri 03:38:00 46.9065 -28.5178 95° East  Level FlightAware Approximate
Fri 03:39:00 46.8916 -28.3064 96° East  Level FlightAware Approximate
Fri 03:40:00 46.8763 -28.0953 96° East  Level FlightAware Approximate
Fri 03:41:00 46.8605 -27.8842 96° East  Level FlightAware Approximate
Fri 03:42:00 46.8445 -27.6733 96° East  Level FlightAware Approximate
Fri 03:43:00 46.8280 -27.4624 96° East  Level FlightAware Approximate
Fri 03:44:00 46.8111 -27.2518 97° East  Level FlightAware Approximate
Fri 03:45:00 46.7939 -27.0412 97° East  Level FlightAware Approximate
Fri 03:46:00 46.7763 -26.8308 97° East  Level FlightAware Approximate
Fri 03:47:00 46.7583 -26.6205 97° East  Level FlightAware Approximate
Fri 03:48:00 46.7398 -26.4104 97° East  Level FlightAware Approximate
Fri 03:49:00 46.7211 -26.2004 97° East  Level FlightAware Approximate
Fri 03:50:00 46.7019 -25.9906 98° East  Level FlightAware Approximate
Fri 03:51:00 46.6823 -25.7809 98° East  Level FlightAware Approximate
Fri 03:52:00 46.6624 -25.5713 98° East  Level FlightAware Approximate
Fri 03:53:00 46.6421 -25.3620 98° East  Level FlightAware Approximate
Fri 03:54:00 46.6214 -25.1527 98° East  Level FlightAware Approximate
Fri 03:55:00 46.6003 -24.9437 98° East  Level FlightAware Approximate
Fri 03:56:00 46.5788 -24.7348 98° East  Level FlightAware Approximate
Fri 03:57:00 46.5570 -24.5261 99° East  Level FlightAware Approximate
Fri 03:58:00 46.5348 -24.3175 99° East  Level FlightAware Approximate
Fri 03:59:00 46.5122 -24.1091 99° East  Level FlightAware Approximate
Fri 04:00:00 46.4892 -23.9009 99° East  Level FlightAware Approximate
Fri 04:01:00 46.4659 -23.6929 99° East  Level FlightAware Approximate
Fri 04:02:00 46.4430 -23.4848 99° East  Level FlightAware Approximate
Fri 04:03:00 46.4197 -23.2769 99° East  Level FlightAware Approximate
Fri 04:04:00 46.3961 -23.0692 99° East  Level FlightAware Approximate
Fri 04:05:00 46.3721 -22.8617 99° East  Level FlightAware Approximate
Fri 04:06:00 46.3477 -22.6544 100° East  Level FlightAware Approximate
Fri 04:07:00 46.3229 -22.4472 100° East  Level FlightAware Approximate
Fri 04:08:00 46.2977 -22.2403 100° East  Level FlightAware Approximate
Fri 04:09:00 46.2722 -22.0335 100° East  Level FlightAware Approximate
Fri 04:10:00 46.2463 -21.8269 100° East  Level FlightAware Approximate
Fri 04:11:00 46.2201 -21.6206 100° East  Level FlightAware Approximate
Fri 04:12:00 46.1934 -21.4144 100° East  Level FlightAware Approximate
Fri 04:13:00 46.1664 -21.2084 101° East  Level FlightAware Approximate
Fri 04:14:00 46.1391 -21.0026 101° East  Level FlightAware Approximate
Fri 04:15:00 46.1113 -20.7971 101° East  Level FlightAware Approximate
Fri 04:16:00 46.0832 -20.5917 101° East  Level FlightAware Approximate
Fri 04:17:00 46.0547 -20.3865 101° East  Level FlightAware Approximate
Fri 04:18:00 46.0259 -20.1816 101° East  Level FlightAware Approximate
Fri 04:19:00 45.9953 -19.9774 107° East  Level FlightAware Approximate
Fri 04:20:00 45.9537 -19.7773 107° East  Level FlightAware Approximate
Fri 04:21:00 45.9118 -19.5775 107° East  Level FlightAware Approximate
Fri 04:22:00 45.8695 -19.3780 107° East  Level FlightAware Approximate
Fri 04:23:00 45.8269 -19.1788 107° East  Level FlightAware Approximate
Fri 04:24:00 45.7839 -18.9799 107° East  Level FlightAware Approximate
Fri 04:25:00 45.7406 -18.7813 107° East  Level FlightAware Approximate
Fri 04:26:00 45.6969 -18.5830 107° East  Level FlightAware Approximate
Fri 04:27:00 45.6530 -18.3851 108° East  Level FlightAware Approximate
Fri 04:28:00 45.6086 -18.1874 108° East  Level FlightAware Approximate
Fri 04:29:00 45.5639 -17.9901 108° East  Level FlightAware Approximate
Fri 04:30:00 45.5189 -17.7931 108° East  Level FlightAware Approximate
Fri 04:31:00 45.4738 -17.5963 108° East  Level FlightAware Approximate
Fri 04:32:00 45.4283 -17.3998 108° East  Level FlightAware Approximate
Fri 04:33:00 45.3825 -17.2036 108° East  Level FlightAware Approximate
Fri 04:34:00 45.3363 -17.0077 108° East  Level FlightAware Approximate
Fri 04:35:00 45.2898 -16.8122 109° East  Level FlightAware Approximate
Fri 04:36:00 45.2430 -16.6170 109° East  Level FlightAware Approximate
Fri 04:37:00 45.1958 -16.4221 109° East  Level FlightAware Approximate
Fri 04:38:00 45.1484 -16.2275 109° East  Level FlightAware Approximate
Fri 04:39:00 45.1006 -16.0333 109° East  Level FlightAware Approximate
Fri 04:40:00 45.0524 -15.8394 109° East  Level FlightAware Approximate
Fri 04:41:00 45.0039 -15.6458 109° East  Level FlightAware Approximate
Fri 04:42:00 44.9551 -15.4525 110° East  Level FlightAware Approximate
Fri 04:43:00 44.9071 -15.2591 109° East  Level FlightAware Approximate
Fri 04:44:00 44.8595 -15.0655 109° East  Level FlightAware Approximate
Fri 04:45:00 44.8116 -14.8723 109° East  Level FlightAware Approximate
Fri 04:46:00 44.7634 -14.6794 109° East  Level FlightAware Approximate
Fri 04:47:00 44.7149 -14.4868 109° East  Level FlightAware Approximate
Fri 04:48:00 44.6660 -14.2945 110° East  Level FlightAware Approximate
Fri 04:49:00 44.6164 -14.1028 110° East  Level FlightAware Approximate
Fri 04:50:00 44.5654 -13.9120 111° Southeast  Level FlightAware Approximate
Fri 04:51:00 44.5141 -13.7215 111° Southeast  Level FlightAware Approximate
Fri 04:52:00 44.4624 -13.5313 111° Southeast  Level FlightAware Approximate
Fri 04:53:00 44.4105 -13.3415 111° Southeast  Level FlightAware Approximate
Fri 04:54:00 44.3582 -13.1520 111° Southeast  Level FlightAware Approximate
Fri 04:55:00 44.3057 -12.9629 111° Southeast  Level FlightAware Approximate
Fri 04:56:00 44.2528 -12.7741 111° Southeast  Level FlightAware Approximate
Fri 04:56:22 43.6760 -11.5150 111° Southeast 533 613 35,000  Level FlightAware ADS-B
Fri 04:57:00 44.1996 -12.5856 111° Southeast  Level FlightAware Approximate
Fri 04:57:22 43.6320 -11.3180 107° East 533 613 35,000  Level FlightAware ADS-B
Fri 04:58:02 43.6020 -11.1870 108° East 533 613 35,000  Level FlightAware ADS-B
Fri 04:58:47 43.5690 -11.0430 108° East 533 613 35,000  Level FlightAware ADS-B
Fri 04:59:27 43.5400 -10.9140 107° East 533 613 35,000  Level FlightAware ADS-B
Fri 05:00:07 43.5100 -10.7840 108° East 534 615 35,000  Level FlightAware ADS-B
Fri 05:00:52 43.4760 -10.6380 108° East 534 615 35,000  Level FlightAware ADS-B
Fri 05:01:32 43.4460 -10.5100 108° East 534 615 35,000  Level FlightAware ADS-B
Fri 05:02:17 43.4120 -10.3730 109° East 534 615 35,000 353 Level FlightAware ADS-B
Fri 05:02:57 43.3760 -10.2350 110° East 535 616 35,500 750 Climbing FlightAware ADS-B
Fri 05:03:37 43.3440 -10.1100 109° East 534 615 36,000 353 Climbing FlightAware ADS-B
Fri 05:04:22 43.3070 -9.9630 109° East 531 611 36,000  Level FlightAware ADS-B
Fri 05:05:02 43.2750 -9.8360 109° East 529 609 36,000  Level FlightAware ADS-B
Fri 05:05:47 43.2410 -9.7000 109° East 527 606 36,000  Level FlightAware ADS-B
Fri 05:06:27 43.2060 -9.5570 109° East 527 606 36,000  Level FlightAware ADS-B
Fri 05:07:12 43.1720 -9.4170 108° East 525 604 36,000  Level FlightAware ADS-B
Fri 05:07:52 43.1400 -9.2890 109° East 525 604 36,000  Level FlightAware ADS-B
Fri 05:08:32 43.1090 -9.1630 109° East 527 606 36,000  Level FlightAware ADS-B
Fri 05:09:17 43.0750 -9.0220 108° East 527 606 36,000  Level FlightAware ADS-B
Fri 05:09:57 43.0440 -8.8970 109° East 527 606 36,000  Level FlightAware ADS-B
Fri 05:10:42 43.0090 -8.7580 109° East 528 608 36,000  Level FlightAware ADS-B
Fri 05:13:00 42.9136 -8.3244 93° East  Level FlightAware Approximate
Fri 05:14:00 42.9067 -8.1265 93° East  Level FlightAware Approximate
Fri 05:15:00 42.8995 -7.9286 93° East  Level FlightAware Approximate
Fri 05:16:00 42.8920 -7.7307 93° East  Level FlightAware Approximate
Fri 05:16:07 42.8820 -7.7040 93° East 531 611 36,000  Level FlightAware ADS-B
Fri 05:16:57 42.8710 -7.5340 95° East 531 611 36,000  Level FlightAware ADS-B
Fri 05:17:37 42.8620 -7.4020 95° East 531 611 36,000  Level FlightAware ADS-B
Fri 05:18:17 42.8530 -7.2700 95° East 531 611 36,000  Level FlightAware ADS-B
Fri 05:19:02 42.8420 -7.1180 96° East 531 611 36,000  Level FlightAware ADS-B
Fri 05:19:42 42.8330 -6.9850 95° East 530 610 36,000  Level FlightAware ADS-B
Fri 05:20:27 42.8220 -6.8370 96° East 529 609 36,000  Level FlightAware ADS-B
Fri 05:21:07 42.8120 -6.7060 96° East 529 609 36,000  Level FlightAware ADS-B
Fri 05:21:52 42.8010 -6.5610 96° East 528 608 36,000  Level FlightAware ADS-B
Fri 05:22:32 42.7910 -6.4220 96° East 528 608 36,000  Level FlightAware ADS-B
Fri 05:23:17 42.7790 -6.2720 96° East 528 608 36,000  Level FlightAware ADS-B
Fri 05:23:57 42.7690 -6.1390 96° East 527 606 36,000  Level FlightAware ADS-B
Fri 05:24:37 42.7590 -6.0080 96° East 527 606 36,000  Level FlightAware ADS-B
Fri 05:25:17 42.7490 -5.8760 96° East 525 604 36,000  Level FlightAware ADS-B
Fri 05:26:02 42.7370 -5.7340 97° East 526 605 36,000  Level FlightAware ADS-B
Fri 05:26:47 42.7250 -5.5850 96° East 525 604 36,000  Level FlightAware ADS-B
Fri 05:27:27 42.7140 -5.4500 96° East 525 604 36,000  Level FlightAware ADS-B
Fri 05:28:12 42.7020 -5.3080 97° East 525 604 36,000  Level FlightAware ADS-B
Fri 05:29:02 42.6880 -5.1390 96° East 525 604 36,000  Level FlightAware ADS-B
Fri 05:29:47 42.6760 -4.9960 96° East 525 604 36,000  Level FlightAware ADS-B
Fri 05:30:32 42.6580 -4.8470 99° East 524 603 36,000  Level FlightAware ADS-B
Fri 05:31:12 42.6400 -4.7190 101° East 524 603 36,000  Level FlightAware ADS-B
Fri 05:31:52 42.6200 -4.5890 102° East 523 602 36,000  Level FlightAware ADS-B
Fri 05:32:37 42.5980 -4.4460 102° East 522 601 36,000  Level FlightAware ADS-B
Fri 05:33:17 42.5800 -4.3240 101° East 522 601 36,000  Level FlightAware ADS-B
Fri 05:33:57 42.5600 -4.1910 101° East 522 601 36,000  Level FlightAware ADS-B
Fri 05:34:42 42.5380 -4.0450 102° East 521 600 36,000  Level FlightAware ADS-B
Fri 05:35:22 42.5190 -3.9220 102° East 522 601 36,000  Level FlightAware ADS-B
Fri 05:36:07 42.4980 -3.7860 102° East 523 602 36,000  Level FlightAware ADS-B
Fri 05:36:47 42.4770 -3.6480 102° East 523 602 36,000  Level FlightAware ADS-B
Fri 05:37:17 42.4620 -3.5510 102° East 523 602 36,000  Level FlightAware ADS-B
Fri 05:37:52 42.4450 -3.4390 102° East 524 603 36,000  Level FlightAware ADS-B
Fri 05:38:32 42.4240 -3.3090 102° East 525 604 36,000  Level FlightAware ADS-B
Fri 05:39:17 42.4020 -3.1660 102° East 525 604 36,000  Level FlightAware ADS-B
Fri 05:39:52 42.3840 -3.0530 102° East 525 604 36,000  Level FlightAware ADS-B
Fri 05:40:37 42.3610 -2.9130 102° East 525 604 36,000  Level FlightAware ADS-B
Fri 05:41:17 42.3410 -2.7850 102° East 526 605 36,000  Level FlightAware ADS-B
Fri 05:42:02 42.3170 -2.6380 102° East 526 605 36,000  Level FlightAware ADS-B
Fri 05:42:42 42.2970 -2.5170 103° East 525 604 36,000  Level FlightAware ADS-B
Fri 05:43:27 42.2720 -2.3680 103° East 525 604 36,000  Level FlightAware ADS-B
Fri 05:44:07 42.2500 -2.2360 103° East 525 604 36,000  Level FlightAware ADS-B
Fri 05:44:47 42.2290 -2.1120 103° East 524 603 36,000  Level FlightAware ADS-B
Fri 05:45:27 42.2060 -1.9830 103° East 524 603 36,000  Level FlightAware ADS-B
Fri 05:46:17 42.1780 -1.8180 103° East 525 604 36,000  Level FlightAware ADS-B
Fri 05:46:57 42.1560 -1.6910 103° East 525 604 36,000  Level FlightAware ADS-B
Fri 05:47:37 42.1340 -1.5650 103° East 524 603 36,000  Level FlightAware ADS-B
Fri 05:48:22 42.1080 -1.4220 104° East 526 605 36,000  Level FlightAware ADS-B
Fri 05:49:02 42.0830 -1.2930 105° East 524 603 36,000  Level FlightAware ADS-B
Fri 05:49:37 42.0600 -1.1840 106° East 524 603 36,000  Level FlightAware ADS-B
Fri 05:50:17 42.0330 -1.0610 106° East 525 604 36,000  Level FlightAware ADS-B
Fri 05:51:02 42.0020 -0.9140 106° East 527 606 36,000  Level FlightAware ADS-B
Fri 05:51:42 41.9760 -0.7970 107° East 529 609 36,000  Level FlightAware ADS-B
Fri 05:52:27 41.9450 -0.6500 106° East 531 611 36,000  Level FlightAware ADS-B
Fri 05:53:07 41.9170 -0.5230 106° East 531 611 36,000  Level FlightAware ADS-B
Fri 05:53:47 41.8890 -0.3940 106° East 532 612 36,000  Level FlightAware ADS-B
Fri 05:54:32 41.8580 -0.2540 107° East 533 613 36,000  Level FlightAware ADS-B
Fri 05:55:12 41.8300 -0.1290 107° East 534 615 36,000  Level FlightAware ADS-B
Fri 05:55:57 41.7970 0.0200 106° East 534 615 36,000  Level FlightAware ADS-B
Fri 05:56:37 41.7690 0.1470 106° East 534 615 36,000  Level FlightAware ADS-B
Fri 05:57:17 41.7410 0.2730 107° East 535 616 36,000  Level FlightAware ADS-B
Fri 05:58:02 41.7090 0.4120 107° East 534 615 36,000  Level FlightAware ADS-B
Fri 05:58:42 41.6810 0.5390 106° East 534 615 36,000  Level FlightAware ADS-B
Fri 05:59:27 41.6480 0.6830 107° East 536 617 36,000  Level FlightAware ADS-B
Fri 06:00:07 41.6180 0.8100 107° East 534 615 36,000  Level FlightAware ADS-B
Fri 06:00:52 41.5870 0.9460 107° East 535 616 36,000  Level FlightAware ADS-B
Fri 06:01:32 41.5600 1.0630 107° East 534 615 36,000  Level FlightAware ADS-B
Fri 06:02:12 41.5300 1.1960 107° East 534 615 36,000  Level FlightAware ADS-B
Fri 06:02:57 41.4990 1.3280 107° East 534 615 36,000  Level FlightAware ADS-B
Fri 06:03:37 41.4680 1.4630 107° East 534 615 36,000  Level FlightAware ADS-B
Fri 06:04:22 41.4340 1.6090 107° East 535 616 36,000  Level FlightAware ADS-B
Fri 06:05:02 41.4040 1.7350 108° East 536 617 36,000  Level FlightAware ADS-B
Fri 06:05:42 41.3740 1.8600 108° East 536 617 36,000  Level FlightAware ADS-B
Fri 06:06:27 41.3410 2.0000 107° East 537 618 36,000  Level FlightAware ADS-B
Fri 06:07:07 41.3120 2.1260 107° East 538 619 36,000  Level FlightAware ADS-B
Fri 06:07:47 41.2890 2.2570 103° East 541 623 36,000  Level FlightAware ADS-B
Fri 06:08:32 41.2640 2.4060 103° East 540 621 36,000  Level FlightAware ADS-B
Fri 06:09:12 41.2420 2.5340 103° East 541 623 36,000  Level FlightAware ADS-B
Fri 06:09:57 41.2170 2.6780 103° East 542 624 36,000  Level FlightAware ADS-B
Fri 06:10:37 41.1950 2.8070 103° East 543 625 36,000  Level FlightAware ADS-B
Fri 06:11:17 41.1720 2.9370 103° East 543 625 36,000  Level FlightAware ADS-B
Fri 06:12:02 41.1460 3.0880 103° East 543 625 36,000  Level FlightAware ADS-B
Fri 06:12:42 41.1240 3.2130 103° East 543 625 36,000  Level FlightAware ADS-B
Fri 06:13:22 41.1010 3.3470 103° East 544 626 36,000  Level FlightAware ADS-B
Fri 06:14:07 41.0760 3.4920 103° East 545 627 36,000  Level FlightAware ADS-B
Fri 06:14:47 41.0530 3.6210 103° East 545 627 36,000  Level FlightAware ADS-B
Fri 06:15:32 41.0260 3.7710 103° East 545 627 36,000  Level FlightAware ADS-B
Fri 06:16:12 41.0060 3.8870 103° East 544 626 36,000  Level FlightAware ADS-B
Fri 06:16:57 40.9780 4.0400 104° East 545 627 36,000  Level FlightAware ADS-B
Fri 06:17:37 40.9550 4.1680 103° East 548 631 36,000  Level FlightAware ADS-B
Fri 06:18:17 40.9320 4.2920 104° East 549 632 36,000  Level FlightAware ADS-B
Fri 06:19:02 40.9050 4.4460 103° East 548 631 36,000  Level FlightAware ADS-B
Fri 06:19:42 40.8890 4.5760 99° East 552 635 36,000  Level FlightAware ADS-B
Fri 06:20:27 40.8750 4.7210 97° East 552 635 36,000  Level FlightAware ADS-B
Fri 06:21:02 40.8650 4.8270 97° East 552 635 36,000  Level FlightAware ADS-B
Fri 06:21:42 40.8540 4.9410 97° East 552 635 36,000  Level FlightAware ADS-B
Fri 06:24:00 40.7914 5.3743 101° East  Level Estimated
Fri 06:25:00 40.7636 5.5625 101° East  Level Estimated
Fri 06:26:00 40.7356 5.7505 101° East  Level Estimated
Fri 06:26:57 40.7410 6.0180 101° East 555 639 36,000  Level FlightAware ADS-B
Fri 06:27:00 40.7072 5.9383 101° East  Level Estimated
Fri 06:27:37 40.7260 6.1550 98° East 558 642 36,000  Level FlightAware ADS-B
Fri 06:28:22 40.7090 6.3060 98° East 562 647 36,000  Level FlightAware ADS-B
Fri 06:28:52 40.6970 6.4090 99° East 562 647 36,000  Level FlightAware ADS-B
Fri 06:29:47 40.6760 6.5920 99° East 559 643 36,000  Level FlightAware ADS-B
Fri 06:30:27 40.6610 6.7310 98° East 560 644 36,000  Level FlightAware ADS-B
Fri 06:31:07 40.6450 6.8670 99° East 560 644 36,000  Level FlightAware ADS-B
Fri 06:31:52 40.6270 7.0210 99° East 559 643 36,000  Level FlightAware ADS-B
Fri 06:32:32 40.6120 7.1540 98° East 558 642 36,000  Level FlightAware ADS-B
Fri 06:33:17 40.5940 7.3050 99° East 558 642 36,000  Level FlightAware ADS-B
Fri 06:33:57 40.5790 7.4370 98° East 559 643 36,000  Level FlightAware ADS-B
Fri 06:34:37 40.5790 7.5750 90° East 567 652 36,000  Level FlightAware ADS-B
Fri 06:35:22 40.5930 7.7310 83° East 568 654 36,000  Level FlightAware ADS-B
Fri 06:36:02 40.6050 7.8660 83° East 569 655 36,000  Level FlightAware ADS-B
Fri 06:36:47 40.6190 8.0240 83° East 570 656 36,000  Level FlightAware ADS-B
Fri 06:37:27 40.6310 8.1610 83° East 571 657 36,000  Level FlightAware ADS-B
Fri 06:38:07 40.6420 8.2970 84° East 572 658 36,000  Level FlightAware ADS-B
Fri 06:38:52 40.6540 8.4550 84° East 573 659 36,000  Level FlightAware ADS-B
Fri 06:39:32 40.6650 8.5930 84° East 574 661 36,000  Level FlightAware ADS-B
Fri 06:40:17 40.6770 8.7520 84° East 573 659 36,000  Level FlightAware ADS-B
Fri 06:40:57 40.6880 8.8890 84° East 572 658 36,000  Level FlightAware ADS-B
Fri 06:41:37 40.6980 9.0300 85° East 572 658 36,000  Level FlightAware ADS-B
Fri 06:42:22 40.7090 9.1840 85° East 570 656 36,000  Level FlightAware ADS-B
Fri 06:43:02 40.7190 9.3210 84° East 570 656 36,000  Level FlightAware ADS-B
Fri 06:43:42 40.7290 9.4610 85° East 568 654 36,000  Level FlightAware ADS-B
Fri 06:44:27 40.7400 9.6140 85° East 562 647 36,000  Level FlightAware ADS-B
Fri 06:45:07 40.7500 9.7510 84° East 557 641 36,000  Level FlightAware ADS-B
Fri 06:45:52 40.7600 9.9020 85° East 556 640 36,000  Level FlightAware ADS-B
Fri 06:46:27 40.7680 10.0140 85° East 555 639 36,000 143 Level FlightAware ADS-B
Fri 06:49:00 40.6709 10.4853 105° East  Level FlightAware Approximate
Fri 06:49:22 40.8060 10.6010 105° East 558 642 36,500  Level FlightAware ADS-B
Fri 06:50:12 40.8170 10.7730 85° East 552 635 37,000 150 Climbing FlightAware ADS-B
Fri 06:52:00 40.7409 11.1031 107° East  Level Estimated
Fri 06:52:42 40.8450 11.2450 107° East 544 626 37,000  Level FlightAware ADS-B
Fri 06:53:32 40.8540 11.4100 86° East 544 626 37,000  Level FlightAware ADS-B
Fri 06:54:22 40.8640 11.5850 86° East 545 627 37,000  Level FlightAware ADS-B
Fri 06:55:07 40.8350 11.7280 105° East 524 603 37,000  Level FlightAware ADS-B
Fri 06:55:47 40.8000 11.8500 111° Southeast 518 596 37,000  Level FlightAware ADS-B
Fri 06:56:27 40.7620 11.9700 113° Southeast 515 593 37,000  Level FlightAware ADS-B
Fri 06:57:12 40.7260 12.0830 113° Southeast 516 594 37,000  Level FlightAware ADS-B
Fri 06:57:57 40.6790 12.2340 112° Southeast 515 593 37,000  Level FlightAware ADS-B
Fri 06:58:42 40.6410 12.3560 112° Southeast 515 593 37,000  Level FlightAware ADS-B
Fri 06:59:17 40.6080 12.4590 113° Southeast 512 589 37,000  Level FlightAware ADS-B
Fri 07:00:02 40.5630 12.6040 112° Southeast 512 589 37,000  Level FlightAware ADS-B
Fri 07:00:47 40.5220 12.7320 113° Southeast 513 590 37,000  Level FlightAware ADS-B
Fri 07:01:27 40.4830 12.8560 112° Southeast 512 589 37,000  Level FlightAware ADS-B
Fri 07:02:12 40.4420 12.9840 113° Southeast 511 588 37,000  Level FlightAware ADS-B
Fri 07:02:52 40.4080 13.0910 113° Southeast 510 587 37,000  Level FlightAware ADS-B
Fri 07:03:32 40.3700 13.2100 113° Southeast 510 587 37,000  Level FlightAware ADS-B
Fri 07:04:17 40.3270 13.3420 113° Southeast 511 588 37,000  Level FlightAware ADS-B
Fri 07:04:57 40.2900 13.4560 113° Southeast 513 590 37,000  Level FlightAware ADS-B
Fri 07:05:42 40.2490 13.5800 113° Southeast 514 592 37,000  Level FlightAware ADS-B
Fri 07:06:22 40.2110 13.6950 113° Southeast 516 594 37,000  Level FlightAware ADS-B
Fri 07:07:02 40.1730 13.8100 113° Southeast 517 595 37,000  Level FlightAware ADS-B
Fri 07:07:42 40.1350 13.9240 114° Southeast 519 597 37,000  Level FlightAware ADS-B
Fri 07:08:27 40.0900 14.0580 114° Southeast 520 598 37,000  Level FlightAware ADS-B
Fri 07:09:07 40.0510 14.1740 114° Southeast 521 600 37,000  Level FlightAware ADS-B
Fri 07:09:52 40.0090 14.3000 113° Southeast 522 601 37,000  Level FlightAware ADS-B
Fri 07:10:32 39.9700 14.4150 114° Southeast 522 601 37,000  Level FlightAware ADS-B
Fri 07:11:17 39.9240 14.5480 114° Southeast 521 600 37,000  Level FlightAware ADS-B
Fri 07:11:57 39.8850 14.6620 114° Southeast 521 600 37,000  Level FlightAware ADS-B
Fri 07:12:37 39.8470 14.7720 114° Southeast 520 598 37,000  Level FlightAware ADS-B
Fri 07:13:22 39.8030 14.9000 114° Southeast 519 597 37,000  Level FlightAware ADS-B
Fri 07:14:02 39.7640 15.0130 114° Southeast 518 596 37,000  Level FlightAware ADS-B
Fri 07:14:47 39.7180 15.1440 115° Southeast 517 595 37,000  Level FlightAware ADS-B
Fri 07:15:42 39.6660 15.2920 114° Southeast 515 593 37,000  Level FlightAware ADS-B
Fri 07:16:22 39.6250 15.4100 114° Southeast 518 596 37,000  Level FlightAware ADS-B
Fri 07:17:07 39.5820 15.5320 115° Southeast 515 593 37,000  Level FlightAware ADS-B
Fri 07:18:52 39.4740 15.8320 115° Southeast 514 592 37,000  Level FlightAware ADS-B
Fri 07:19:32 39.4340 15.9460 114° Southeast 514 592 37,000  Level FlightAware ADS-B
Fri 07:20:02 39.4070 16.0330 112° Southeast 516 594 37,000  Level FlightAware ADS-B
Fri 07:20:42 39.3750 16.1430 111° Southeast 516 594 37,000  Level FlightAware ADS-B
Fri 07:22:52 39.2750 16.5290 108° East 519 597 37,000  Level FlightAware ADS-B
Fri 07:23:32 39.2440 16.6440 109° East 521 600 37,000  Level FlightAware ADS-B
Fri 07:24:12 39.2110 16.7630 110° East 520 598 37,000  Level FlightAware ADS-B
Fri 07:26:00 39.1221 17.0799 110° East  Level FlightAware Approximate
Fri 07:27:00 39.0724 17.2556 110° East  Level FlightAware Approximate
Fri 07:27:42 39.0540 17.3360 110° East 521 600 37,000  Level FlightAware ADS-B
Fri 07:28:22 39.0210 17.4550 110° East 520 598 37,000  Level FlightAware ADS-B
Fri 07:29:12 38.9800 17.6040 109° East 520 598 37,000  Level FlightAware ADS-B
Fri 07:29:47 38.9520 17.7020 110° East 519 597 37,000  Level FlightAware ADS-B
Fri 07:30:27 38.9190 17.8200 110° East 518 596 37,000  Level FlightAware ADS-B
Fri 07:31:07 38.8860 17.9410 109° East 516 594 37,000  Level FlightAware ADS-B
Fri 07:31:57 38.8470 18.0760 110° East 516 594 37,000  Level FlightAware ADS-B
Fri 07:32:52 38.8030 18.2330 110° East 517 595 37,000  Level FlightAware ADS-B
Fri 07:33:37 38.7640 18.3690 110° East 517 595 37,000  Level FlightAware ADS-B
Fri 07:34:17 38.7310 18.4830 110° East 517 595 37,000  Level FlightAware ADS-B
Fri 07:34:57 38.6970 18.6000 110° East 518 596 37,000  Level FlightAware ADS-B
Fri 07:35:37 38.6620 18.7190 111° Southeast 518 596 37,000  Level FlightAware ADS-B
Fri 07:36:17 38.6310 18.8270 110° East 519 597 37,000  Level FlightAware ADS-B
Fri 07:36:52 38.6040 18.9200 110° East 521 600 37,000  Level FlightAware ADS-B
Fri 07:37:32 38.5600 19.0650 111° Southeast 37,000  Level FlightAware ADS-B
Fri 07:38:12 38.5230 19.1900 111° Southeast 520 598 37,000  Level FlightAware ADS-B
Fri 07:38:47 38.4920 19.2920 111° Southeast 520 598 37,000  Level FlightAware ADS-B
Fri 07:39:37 38.4600 19.4000 111° Southeast 523 602 37,000  Level FlightAware ADS-B
Fri 07:40:17 38.4250 19.5150 111° Southeast 523 602 37,000  Level FlightAware ADS-B
Fri 07:41:07 38.3790 19.6660 111° Southeast 522 601 37,000  Level FlightAware ADS-B
Fri 07:41:42 38.3500 19.7590 112° Southeast 522 601 37,000  Level FlightAware ADS-B
Fri 07:42:22 38.3120 19.8830 111° Southeast 524 603 37,000  Level FlightAware ADS-B
Fri 07:43:12 38.2690 20.0230 111° Southeast 524 603 37,000  Level FlightAware ADS-B
Fri 07:44:07 38.2100 20.2120 112° Southeast 525 604 37,000  Level FlightAware ADS-B
Fri 07:44:47 38.1750 20.3260 111° Southeast 525 604 37,000  Level FlightAware ADS-B
Fri 07:45:32 38.1340 20.4540 112° Southeast 525 604 37,000  Level FlightAware ADS-B
Fri 07:46:12 38.0990 20.5680 111° Southeast 526 605 37,000  Level FlightAware ADS-B
Fri 07:46:57 38.0610 20.6910 111° Southeast 525 604 37,000  Level FlightAware ADS-B
Fri 07:47:42 38.0180 20.8220 113° Southeast 524 603 37,000  Level FlightAware ADS-B
Fri 07:48:27 37.9750 20.9580 112° Southeast 525 604 37,000  Level FlightAware ADS-B
Fri 07:48:52 37.9550 21.0210 112° Southeast 525 604 37,000  Level FlightAware ADS-B
Fri 07:49:37 37.9110 21.1560 112° Southeast 525 604 37,000  Level FlightAware ADS-B
Fri 07:50:17 37.8750 21.2700 112° Southeast 526 605 37,000  Level FlightAware ADS-B
Fri 07:51:02 37.8350 21.3930 112° Southeast 527 606 37,000  Level FlightAware ADS-B
Fri 07:51:37 37.8010 21.4980 112° Southeast 529 609 37,000  Level FlightAware ADS-B
Fri 07:52:22 37.7620 21.6170 112° Southeast 530 610 37,000  Level FlightAware ADS-B
Fri 07:52:52 37.7310 21.7110 113° Southeast 530 610 37,000  Level FlightAware ADS-B
Fri 07:53:37 37.6890 21.8420 112° Southeast 528 608 37,000  Level FlightAware ADS-B
Fri 07:54:22 37.6470 21.9680 113° Southeast 525 604 37,000  Level FlightAware ADS-B
Fri 07:55:02 37.6100 22.0820 112° Southeast 524 603 37,000  Level FlightAware ADS-B
Fri 07:55:47 37.5690 22.2040 113° Southeast 521 600 37,000  Level FlightAware ADS-B
Fri 07:56:27 37.5290 22.3230 113° Southeast 522 601 37,000  Level FlightAware ADS-B
Fri 07:57:07 37.4920 22.4350 113° Southeast 523 602 37,000  Level FlightAware ADS-B
Fri 07:57:47 37.4550 22.5450 113° Southeast 520 598 37,000  Level FlightAware ADS-B
Fri 07:58:32 37.4130 22.6700 113° Southeast 518 596 37,000  Level FlightAware ADS-B
Fri 07:59:02 37.3850 22.7550 112° Southeast 516 594 37,000  Level FlightAware ADS-B
Fri 07:59:42 37.3470 22.8660 113° Southeast 515 593 37,000  Level FlightAware ADS-B
Fri 08:00:22 37.3100 22.9750 113° Southeast 515 593 37,000  Level FlightAware ADS-B
Fri 08:01:02 37.2720 23.0860 113° Southeast 515 593 37,000  Level FlightAware ADS-B
Fri 08:01:42 37.2340 23.1960 113° Southeast 513 590 37,000  Level FlightAware ADS-B
Fri 08:02:22 37.1970 23.3020 114° Southeast 511 588 37,000  Level FlightAware ADS-B
Fri 08:03:07 37.1540 23.4230 114° Southeast 512 589 37,000  Level FlightAware ADS-B
Fri 08:03:47 37.1170 23.5310 113° Southeast 512 589 37,000  Level FlightAware ADS-B
Fri 08:04:32 37.0730 23.6570 114° Southeast 512 589 37,000  Level FlightAware ADS-B
Fri 08:05:12 37.0340 23.7660 114° Southeast 511 588 37,000  Level FlightAware ADS-B
Fri 08:05:52 36.9970 23.8740 113° Southeast 510 587 37,000  Level FlightAware ADS-B
Fri 08:06:37 36.9550 23.9930 114° Southeast 510 587 37,000  Level FlightAware ADS-B
Fri 08:07:22 36.9130 24.1130 114° Southeast 510 587 37,000  Level FlightAware ADS-B
Fri 08:08:03 36.8730 24.2270 114° Southeast 510 587 37,000  Level FlightAware ADS-B
Fri 08:08:42 36.8370 24.3320 113° Southeast 507 583 37,000  Level FlightAware ADS-B
Fri 08:09:17 36.8050 24.4240 113° Southeast 505 581 37,000  Level FlightAware ADS-B
Fri 08:09:52 36.7710 24.5190 114° Southeast 504 580 37,000  Level FlightAware ADS-B
Fri 08:10:37 36.7290 24.6370 114° Southeast 504 580 37,000  Level FlightAware ADS-B
Fri 08:11:17 36.6900 24.7450 114° Southeast 507 583 37,000  Level FlightAware ADS-B
Fri 08:11:47 36.6620 24.8220 114° Southeast 508 585 37,000  Level FlightAware ADS-B
Fri 08:12:22 36.6260 24.9180 115° Southeast 511 588 37,000  Level FlightAware ADS-B
Fri 08:12:57 36.5930 25.0090 114° Southeast 511 588 37,000  Level FlightAware ADS-B
Fri 08:13:42 36.5480 25.1330 114° Southeast 516 594 37,000  Level FlightAware ADS-B
Fri 08:14:17 36.5130 25.2260 115° Southeast 519 597 37,000  Level FlightAware ADS-B
Fri 08:14:57 36.4740 25.3340 114° Southeast 524 603 37,000  Level FlightAware ADS-B
Fri 08:15:42 36.4270 25.4620 114° Southeast 527 606 37,000  Level FlightAware ADS-B
Fri 08:16:17 36.3930 25.5520 115° Southeast 530 610 37,000  Level FlightAware ADS-B
Fri 08:17:02 36.3440 25.6830 115° Southeast 531 611 37,000  Level FlightAware ADS-B
Fri 08:17:47 36.2990 25.8040 115° Southeast 531 611 37,000  Level FlightAware ADS-B
Fri 08:18:27 36.2620 25.9030 115° Southeast 531 611 37,000  Level FlightAware ADS-B
Fri 08:18:57 36.2350 25.9730 116° Southeast 531 611 37,000  Level FlightAware ADS-B
Fri 08:19:37 36.2000 26.0670 115° Southeast 531 611 37,000  Level FlightAware ADS-B
Fri 08:20:17 36.1650 26.1610 115° Southeast 531 611 37,000  Level FlightAware ADS-B
Fri 08:20:57 36.1290 26.2550 115° Southeast 531 611 37,000  Level FlightAware ADS-B
Fri 08:21:47 36.0850 26.3720 115° Southeast 531 611 37,000  Level FlightAware ADS-B
Fri 08:22:17 36.0590 26.4420 115° Southeast 531 611 37,000  Level FlightAware ADS-B
Fri 08:22:47 36.0320 26.5120 115° Southeast 531 611 37,000  Level FlightAware ADS-B
Fri 08:23:17 36.0060 26.5830 114° Southeast 531 611 37,000  Level FlightAware ADS-B
Fri 08:23:57 35.9710 26.6760 115° Southeast 531 611 37,000  Level FlightAware ADS-B
Fri 08:24:42 35.8660 26.9380 116° Southeast 539 620 37,000  Level FlightAware ADS-B
Fri 08:25:42 35.8060 27.0950 115° Southeast 542 624 37,000  Level FlightAware ADS-B
Fri 08:26:22 35.7700 27.1900 115° Southeast 542 624 37,000  Level FlightAware ADS-B
Fri 08:27:02 35.7340 27.2850 115° Southeast 542 624 37,000  Level FlightAware ADS-B
Fri 08:27:42 35.6980 27.3800 115° Southeast 542 624 37,000  Level FlightAware ADS-B
Fri 08:28:22 35.6620 27.4750 115° Southeast 542 624 37,000  Level FlightAware ADS-B
Fri 08:29:12 35.6160 27.5940 115° Southeast 542 624 37,000  Level FlightAware ADS-B
Fri 08:29:52 35.5800 27.6890 115° Southeast 542 624 37,000  Level FlightAware ADS-B
Fri 08:30:32 35.5440 27.7840 115° Southeast 542 624 37,000  Level FlightAware ADS-B
Fri 08:31:12 35.5080 27.8790 115° Southeast 542 624 37,000  Level FlightAware ADS-B
Fri 08:32:02 35.3730 28.1780 119° Southeast 554 638 37,000  Level FlightAware ADS-B
Fri 08:32:37 35.3340 28.2730 117° Southeast 554 638 37,000  Level FlightAware ADS-B
Fri 08:33:07 35.2990 28.3600 116° Southeast 554 638 37,000  Level FlightAware ADS-B
Fri 08:33:42 35.2590 28.4580 117° Southeast 552 635 37,000  Level FlightAware ADS-B
Fri 08:34:22 35.2120 28.5710 117° Southeast 548 631 37,000  Level FlightAware ADS-B
Fri 08:35:17 35.1560 28.7090 116° Southeast 545 627 37,000  Level FlightAware ADS-B
Fri 08:35:57 35.1090 28.8210 117° Southeast 542 624 37,000  Level FlightAware ADS-B
Fri 08:37:02 35.0380 28.9960 116° Southeast 540 621 37,000  Level FlightAware ADS-B
Fri 08:37:52 34.9830 29.1270 117° Southeast 540 621 37,000  Level FlightAware ADS-B
Fri 08:38:32 34.9460 29.2210 116° Southeast 540 621 37,000  Level FlightAware ADS-B
Fri 08:39:12 34.9080 29.3140 116° Southeast 540 621 37,000 632 Level FlightAware ADS-B
Fri 08:40:07 34.8220 29.5060 119° Southeast 554 638 38,000 667 Climbing FlightAware ADS-B
Fri 08:40:42 34.7820 29.6000 117° Southeast 557 641 38,000  Level FlightAware ADS-B
Fri 08:41:22 34.7310 29.7210 117° Southeast 557 641 38,000  Level FlightAware ADS-B
Fri 08:42:27 34.6520 29.9060 117° Southeast 554 638 38,000  Level FlightAware ADS-B
Fri 08:43:07 34.6150 29.9930 117° Southeast 554 638 38,000  Level FlightAware ADS-B
Fri 08:43:52 34.5570 30.1190 119° Southeast 543 625 38,000  Level FlightAware ADS-B
Fri 08:44:42 34.4930 30.2470 121° Southeast 542 624 38,000 -267 Level FlightAware ADS-B
Fri 08:45:22 34.4370 30.3630 120° Southeast 535 616 37,600 -750 Descending FlightAware ADS-B
Fri 08:46:02 34.3880 30.4630 121° Southeast 529 609 37,000 -424 Descending FlightAware ADS-B
Fri 08:46:47 34.3290 30.5830 121° Southeast 536 617 37,000  Level FlightAware ADS-B
Fri 08:47:27 34.2790 30.6860 120° Southeast 537 618 37,000  Level FlightAware ADS-B
Fri 08:48:07 34.2280 30.7890 121° Southeast 537 618 37,000  Level FlightAware ADS-B
Fri 08:48:52 34.1710 30.9050 121° Southeast 537 618 37,000  Level FlightAware ADS-B
Fri 08:49:32 34.1190 31.0110 121° Southeast 536 617 37,000  Level FlightAware ADS-B
Fri 08:50:02 34.0800 31.0910 120° Southeast 534 615 37,000 -92 Level FlightAware ADS-B
Fri 08:50:37 34.0360 31.1800 121° Southeast 530 610 36,900 -675 Descending FlightAware ADS-B
Fri 08:51:22 33.9820 31.2900 121° Southeast 523 602 36,100 -1,267 Descending FlightAware ADS-B
Fri 08:52:07 33.9240 31.4070 121° Southeast 533 613 35,000 -733 Descending FlightAware ADS-B
Fri 08:52:52 33.8670 31.5220 121° Southeast 535 616 35,000  Level FlightAware ADS-B
Fri 08:54:27 33.7460 31.7620 121° Southeast 534 615 35,000  Level FlightAware ADS-B
Fri 08:55:42 33.6490 31.9530 121° Southeast 532 612 35,000  Level FlightAware ADS-B
Fri 08:56:47 33.5670 32.1170 121° Southeast 532 612 35,000  Level FlightAware ADS-B
Fri 08:57:17 33.5310 32.1870 122° Southeast 530 610 35,000  Level FlightAware ADS-B
Fri 08:58:32 33.4410 32.3650 121° Southeast 532 612 35,000  Level FlightAware ADS-B
Fri 08:59:17 33.3790 32.4880 121° Southeast 534 615 35,000 -67 Level FlightAware ADS-B
Fri 09:00:02 33.3210 32.6000 122° Southeast 531 611 34,900 -424 Descending FlightAware ADS-B
Fri 09:00:42 33.2690 32.7020 121° Southeast 511 588 34,400 -1,125 Descending FlightAware ADS-B
Fri 09:01:22 33.2230 32.7910 122° Southeast 500 575 33,400 -1,950 Descending FlightAware ADS-B
Fri 09:02:02 33.1680 32.8960 122° Southeast 496 571 31,800 -2,250 Descending FlightAware ADS-B
Fri 09:02:42 33.1250 32.9810 121° Southeast 483 556 30,400 -2,100 Descending FlightAware ADS-B
Fri 09:03:22 33.0750 33.0790 121° Southeast 475 547 29,000 -2,175 Descending FlightAware ADS-B
Fri 09:04:02 33.0310 33.1660 121° Southeast 470 541 27,500 -2,250 Descending FlightAware ADS-B
Fri 09:04:42 32.9850 33.2560 121° Southeast 455 524 26,000 -2,100 Descending FlightAware ADS-B
Fri 09:05:22 32.9440 33.3380 121° Southeast 442 509 24,700 -1,920 Descending FlightAware ADS-B
Fri 09:05:57 32.9250 33.4230 105° East 425 489 23,600 -1,754 Descending FlightAware ADS-B
Fri 09:06:27 32.9190 33.4920 96° East 412 474 22,800 -1,569 Descending FlightAware ADS-B
Fri 09:07:02 32.9130 33.5670 95° East 402 463 21,900 -1,516 Descending FlightAware ADS-B
Fri 09:08:02 32.8990 33.6960 97° East 381 438 20,400 -1,440 Descending FlightAware ADS-B
Fri 09:08:42 32.8910 33.7770 97° East 367 422 19,500 -1,457 Descending FlightAware ADS-B
Fri 09:09:12 32.8790 33.8350 104° East 365 420 18,700 -1,477 Descending FlightAware ADS-B
Fri 09:09:47 32.8420 33.8900 129° Southeast 360 414 17,900 -1,341 Descending FlightAware ADS-B
Fri 09:10:37 32.7770 33.9480 143° Southeast 348 400 16,800 -1,341 Descending FlightAware ADS-B
Fri 09:11:12 32.7330 33.9870 143° Southeast 340 391 16,000 -1,350 Descending FlightAware ADS-B
Fri 09:11:57 32.6760 34.0360 144° Southeast 330 380 15,000 -1,333 Descending FlightAware ADS-B
Fri 09:12:42 32.6240 34.0860 141° Southeast 320 368 14,000 -1,333 Descending FlightAware ADS-B
Fri 09:13:27 32.5760 34.1410 136° Southeast 307 353 13,000 -1,271 Descending FlightAware ADS-B
Fri 09:14:07 32.5330 34.1860 139° Southeast 299 344 12,200 -1,200 Descending FlightAware ADS-B
Fri 09:14:47 32.4900 34.2300 139° Southeast 302 348 11,400 -1,200 Descending FlightAware ADS-B
Fri 09:15:32 32.4460 34.2750 139° Southeast 306 352 10,500 -1,200 Descending FlightAware ADS-B
Fri 09:16:02 32.4150 34.3080 138° Southeast 300 345 9,900 -1,200 Descending FlightAware ADS-B
Fri 09:16:27 32.3870 34.3380 138° Southeast 293 337 9,400 -1,200 Descending FlightAware ADS-B
Fri 09:16:57 32.3560 34.3710 138° Southeast 286 329 8,800 -1,067 Descending FlightAware ADS-B
Fri 09:17:12 32.3430 34.3850 138° Southeast 281 323 8,600 -873 Descending FlightAware ADS-B
Fri 09:17:52 32.3100 34.4200 138° Southeast 276 318 8,000 -1,015 Descending FlightAware ADS-B
Fri 09:18:17 32.2870 34.4450 137° Southeast 271 312 7,500 -700 Descending FlightAware ADS-B
Fri 09:18:52 32.2560 34.4770 139° Southeast 269 310 7,300 -982 Descending FlightAware ADS-B
Fri 09:19:12 32.2760 34.4560 318° Northwest 267 307 6,600 -1,200 Descending FlightAware ADS-B
Fri 09:20:42 32.1820 34.6180 124° Southeast 266 306 5,100 -887 Descending FlightAware ADS-B
Fri 09:21:07 32.1650 34.6500 122° Southeast 267 307 4,900 -171 Descending FlightAware ADS-B
Fri 09:21:52 32.1360 34.7030 123° Southeast 261 300 4,900  Level FlightAware ADS-B
Fri 09:22:17 32.1190 34.7330 124° Southeast 262 302 4,900  Level FlightAware ADS-B
Fri 09:22:22 32.1150 34.7410 121° Southeast 262 302 4,900  Level FlightAware ADS-B
Fri 09:22:52 32.0960 34.7740 124° Southeast 260 299 4,900  Level FlightAware ADS-B
Fri 09:23:22 32.0730 34.8080 129° Southeast 240 276 4,900 -120 Level FlightAware ADS-B
Fri 09:23:42 32.0600 34.8220 138° Southeast 219 252 4,800 -360 Descending FlightAware ADS-B
Fri 09:24:12 32.0380 34.8470 136° Southeast 194 223 4,600 -545 Descending FlightAware ADS-B
Fri 09:24:37 32.0240 34.8630 136° Southeast 180 207 4,300 -933 Descending FlightAware ADS-B
Fri 09:24:57 32.0100 34.8790 136° Southeast 181 208 3,900 -1,050 Descending FlightAware ADS-B
Fri 09:25:17 32.0010 34.8890 137° Southeast 182 209 3,600 -1,400 Descending FlightAware ADS-B
Fri 09:25:27 31.9950 34.9010 121° Southeast 176 203 3,200 -1,200 Descending FlightAware ADS-B
Fri 09:25:57 31.9970 34.9290 85° East 163 188 2,800 -800 Descending FlightAware ADS-B
Fri 09:26:27 32.0030 34.9520 73° East 164 189 2,400 -800 Descending FlightAware ADS-B
Fri 09:26:57 32.0090 34.9780 75° East 163 188 2,000 -436 Descending FlightAware ADS-B
Fri 09:27:22 32.0160 34.9960 65° Northeast 163 188 2,000  Level FlightAware ADS-B
Fri 09:30:00 32.0095 34.8769 266° West  Level Estimated

Login

Don't have an account? Register now (free) for customized features, flight alerts, and more!